sensor_id;sensor_type;location;lat;lon;timestamp;pressure;altitude;pressure_sealevel;temperature;humidity
57192;BME280;43052;52.588;13.396;2023-03-15T00:00:40;100270.41;;;0.22;77.35
57192;BME280;43052;52.588;13.396;2023-03-15T00:03:30;100274.72;;;0.23;77.78
57192;BME280;43052;52.588;13.396;2023-03-15T00:06:20;100293.59;;;0.24;77.49
57192;BME280;43052;52.588;13.396;2023-03-15T00:09:10;100294.41;;;0.21;77.49
57192;BME280;43052;52.588;13.396;2023-03-15T00:12:00;100287.53;;;0.22;77.58
57192;BME280;43052;52.588;13.396;2023-03-15T00:14:50;100299.69;;;0.26;77.55
57192;BME280;43052;52.588;13.396;2023-03-15T00:17:41;100299.63;;;0.24;77.60
57192;BME280;43052;52.588;13.396;2023-03-15T00:20:31;100308.25;;;0.26;77.59
57192;BME280;43052;52.588;13.396;2023-03-15T00:23:21;100305.56;;;0.23;77.36
57192;BME280;43052;52.588;13.396;2023-03-15T00:26:12;100319.38;;;0.25;77.25
57192;BME280;43052;52.588;13.396;2023-03-15T00:29:02;100319.34;;;0.24;77.29
57192;BME280;43052;52.588;13.396;2023-03-15T00:31:53;100326.16;;;0.23;77.37
57192;BME280;43052;52.588;13.396;2023-03-15T00:34:44;100326.16;;;0.23;77.21
57192;BME280;43052;52.588;13.396;2023-03-15T00:37:34;100340.69;;;0.21;77.30
57192;BME280;43052;52.588;13.396;2023-03-15T00:40:24;100341.44;;;0.19;77.21
57192;BME280;43052;52.588;13.396;2023-03-15T00:43:15;100343.16;;;0.18;77.13
57192;BME280;43052;52.588;13.396;2023-03-15T00:46:05;100354.31;;;0.19;77.05
57192;BME280;43052;52.588;13.396;2023-03-15T00:48:55;100355.09;;;0.16;77.12
57192;BME280;43052;52.588;13.396;2023-03-15T00:51:45;100353.28;;;0.12;77.24
57192;BME280;43052;52.588;13.396;2023-03-15T00:54:35;100361.94;;;0.15;77.31
57192;BME280;43052;52.588;13.396;2023-03-15T00:57:25;100362.81;;;0.16;77.38
57192;BME280;43052;52.588;13.396;2023-03-15T01:00:21;100364.66;;;0.20;77.07
57192;BME280;43052;52.588;13.396;2023-03-15T01:03:12;100367.13;;;0.17;77.21
57192;BME280;43052;52.588;13.396;2023-03-15T01:06:07;100371.31;;;0.13;77.19
57192;BME280;43052;52.588;13.396;2023-03-15T01:08:57;100379.00;;;0.12;77.30
57192;BME280;43052;52.588;13.396;2023-03-15T01:11:49;100384.88;;;0.09;77.28
57192;BME280;43052;52.588;13.396;2023-03-15T01:14:40;100388.34;;;0.10;77.29
57192;BME280;43052;52.588;13.396;2023-03-15T01:17:31;100390.97;;;0.11;77.10
57192;BME280;43052;52.588;13.396;2023-03-15T01:20:21;100385.88;;;0.13;77.09
57192;BME280;43052;52.588;13.396;2023-03-15T01:23:12;100392.84;;;0.17;77.03
57192;BME280;43052;52.588;13.396;2023-03-15T01:26:05;100391.06;;;0.14;77.03
57192;BME280;43052;52.588;13.396;2023-03-15T01:28:55;100402.97;;;0.11;76.84
57192;BME280;43052;52.588;13.396;2023-03-15T01:31:45;100407.06;;;0.06;76.97
57192;BME280;43052;52.588;13.396;2023-03-15T06:47:34;100805.78;;;3.43;71.38
57192;BME280;43052;52.588;13.396;2023-03-15T06:50:00;100811.59;;;3.35;71.31
57192;BME280;43052;52.588;13.396;2023-03-15T06:52:25;100806.16;;;3.24;71.15
57192;BME280;43052;52.588;13.396;2023-03-15T06:54:50;100813.84;;;3.21;71.03
57192;BME280;43052;52.588;13.396;2023-03-15T06:57:16;100818.94;;;3.19;71.04
57192;BME280;43052;52.588;13.396;2023-03-15T06:59:41;100823.09;;;3.12;70.82
57192;BME280;43052;52.588;13.396;2023-03-15T07:02:12;100827.53;;;3.18;70.89
57192;BME280;43052;52.588;13.396;2023-03-15T07:04:38;100832.09;;;3.27;70.91
57192;BME280;43052;52.588;13.396;2023-03-15T07:07:03;100831.31;;;3.31;71.01
57192;BME280;43052;52.588;13.396;2023-03-15T07:09:28;100836.59;;;3.36;70.80
57192;BME280;43052;52.588;13.396;2023-03-15T07:11:54;100834.31;;;3.48;70.62
57192;BME280;43052;52.588;13.396;2023-03-15T07:14:19;100840.47;;;3.53;70.62
57192;BME280;43052;52.588;13.396;2023-03-15T07:16:46;100844.94;;;3.59;70.43
57192;BME280;43052;52.588;13.396;2023-03-15T07:19:11;100829.72;;;3.71;70.58
57192;BME280;43052;52.588;13.396;2023-03-15T07:21:37;100834.31;;;3.85;70.22
57192;BME280;43052;52.588;13.396;2023-03-15T07:24:02;100835.34;;;3.91;69.91
57192;BME280;43052;52.588;13.396;2023-03-15T07:26:27;100842.72;;;4.13;69.80
57192;BME280;43052;52.588;13.396;2023-03-15T07:28:52;100837.81;;;4.25;69.61
57192;BME280;43052;52.588;13.396;2023-03-15T07:31:18;100847.28;;;4.24;69.65
57192;BME280;43052;52.588;13.396;2023-03-15T07:33:43;100853.06;;;4.11;69.51
57192;BME280;43052;52.588;13.396;2023-03-15T07:36:08;100852.13;;;4.09;69.87
57192;BME280;43052;52.588;13.396;2023-03-15T07:38:34;100859.72;;;4.01;69.75
57192;BME280;43052;52.588;13.396;2023-03-15T07:41:01;100854.53;;;4.01;69.57
57192;BME280;43052;52.588;13.396;2023-03-15T07:43:27;100862.25;;;3.98;69.88
57192;BME280;43052;52.588;13.396;2023-03-15T07:45:53;100874.25;;;3.95;69.54
57192;BME280;43052;52.588;13.396;2023-03-15T07:48:18;100865.25;;;3.80;69.40
57192;BME280;43052;52.588;13.396;2023-03-15T07:50:44;100868.44;;;3.68;69.45
57192;BME280;43052;52.588;13.396;2023-03-15T07:53:09;100871.06;;;3.70;69.64
57192;BME280;43052;52.588;13.396;2023-03-15T07:55:34;100874.63;;;3.75;69.56
57192;BME280;43052;52.588;13.396;2023-03-15T07:58:00;100881.91;;;3.91;69.60
57192;BME280;43052;52.588;13.396;2023-03-15T08:00:26;100877.81;;;4.01;69.26
57192;BME280;43052;52.588;13.396;2023-03-15T08:02:51;100878.00;;;4.07;69.02
57192;BME280;43052;52.588;13.396;2023-03-15T08:05:17;100892.03;;;4.19;69.14
57192;BME280;43052;52.588;13.396;2023-03-15T08:07:47;100888.69;;;4.23;68.67
57192;BME280;43052;52.588;13.396;2023-03-15T08:10:14;100893.09;;;4.27;68.28
57192;BME280;43052;52.588;13.396;2023-03-15T08:12:40;100899.34;;;4.37;68.19
57192;BME280;43052;52.588;13.396;2023-03-15T08:15:09;100900.59;;;4.54;67.96
57192;BME280;43052;52.588;13.396;2023-03-15T08:17:34;100906.78;;;4.61;67.37
57192;BME280;43052;52.588;13.396;2023-03-15T08:20:00;100905.34;;;4.76;67.63
57192;BME280;43052;52.588;13.396;2023-03-15T08:22:30;100907.28;;;4.84;67.02
57192;BME280;43052;52.588;13.396;2023-03-15T08:24:55;100911.75;;;4.93;66.77
57192;BME280;43052;52.588;13.396;2023-03-15T08:27:22;100917.72;;;4.89;65.57
57192;BME280;43052;52.588;13.396;2023-03-15T08:29:47;100916.09;;;4.94;65.57
57192;BME280;43052;52.588;13.396;2023-03-15T08:32:12;100917.78;;;4.92;64.77
57192;BME280;43052;52.588;13.396;2023-03-15T08:34:37;100914.06;;;4.81;64.26
57192;BME280;43052;52.588;13.396;2023-03-15T08:37:03;100923.38;;;4.71;64.26
57192;BME280;43052;52.588;13.396;2023-03-15T08:39:28;100924.09;;;4.62;64.41
57192;BME280;43052;52.588;13.396;2023-03-15T08:41:53;100921.38;;;4.58;64.23
57192;BME280;43052;52.588;13.396;2023-03-15T08:44:19;100924.84;;;4.58;64.44
57192;BME280;43052;52.588;13.396;2023-03-15T08:46:44;100920.50;;;4.57;63.72
57192;BME280;43052;52.588;13.396;2023-03-15T08:49:09;100929.00;;;4.51;63.89
57192;BME280;43052;52.588;13.396;2023-03-15T08:51:35;100934.19;;;4.51;63.68
57192;BME280;43052;52.588;13.396;2023-03-15T08:54:00;100946.31;;;4.54;64.12
57192;BME280;43052;52.588;13.396;2023-03-15T08:56:28;100950.09;;;4.67;64.07
57192;BME280;43052;52.588;13.396;2023-03-15T08:58:53;100954.59;;;4.77;63.78
57192;BME280;43052;52.588;13.396;2023-03-15T09:01:18;100958.03;;;4.76;63.26
57192;BME280;43052;52.588;13.396;2023-03-15T09:03:43;100957.38;;;4.86;63.23
57192;BME280;43052;52.588;13.396;2023-03-15T09:06:09;100966.38;;;5.02;63.14
57192;BME280;43052;52.588;13.396;2023-03-15T09:08:34;100965.94;;;5.25;62.67
57192;BME280;43052;52.588;13.396;2023-03-15T09:10:59;100960.81;;;5.27;60.84
57192;BME280;43052;52.588;13.396;2023-03-15T09:13:25;100974.53;;;5.23;60.22
57192;BME280;43052;52.588;13.396;2023-03-15T09:15:51;100981.50;;;5.25;60.17
57192;BME280;43052;52.588;13.396;2023-03-15T09:18:17;100984.69;;;5.55;60.33
57192;BME280;43052;52.588;13.396;2023-03-15T09:20:43;100973.84;;;5.79;59.07
57192;BME280;43052;52.588;13.396;2023-03-15T09:23:09;100981.69;;;5.82;58.65
57192;BME280;43052;52.588;13.396;2023-03-15T09:25:34;100984.28;;;5.80;58.77
57192;BME280;43052;52.588;13.396;2023-03-15T09:28:05;100985.31;;;5.90;58.90
57192;BME280;43052;52.588;13.396;2023-03-15T09:30:30;100989.19;;;6.14;58.16
57192;BME280;43052;52.588;13.396;2023-03-15T09:32:56;100993.91;;;6.40;57.24
57192;BME280;43052;52.588;13.396;2023-03-15T09:35:21;100992.38;;;6.53;57.02
57192;BME280;43052;52.588;13.396;2023-03-15T09:37:48;101001.59;;;6.92;57.43
57192;BME280;43052;52.588;13.396;2023-03-15T09:42:57;100992.63;;;7.39;55.97
57192;BME280;43052;52.588;13.396;2023-03-15T09:48:36;101006.25;;;8.03;54.32
57192;BME280;43052;52.588;13.396;2023-03-15T09:51:07;101015.94;;;8.14;54.04
57192;BME280;43052;52.588;13.396;2023-03-15T09:56:23;101016.00;;;8.19;53.79
57192;BME280;43052;52.588;13.396;2023-03-15T09:58:51;101003.06;;;8.36;54.46
57192;BME280;43052;52.588;13.396;2023-03-15T10:01:21;101021.56;;;8.64;53.92
57192;BME280;43052;52.588;13.396;2023-03-15T10:03:51;101022.50;;;8.77;53.18
57192;BME280;43052;52.588;13.396;2023-03-15T10:06:28;101032.81;;;8.60;51.44
57192;BME280;43052;52.588;13.396;2023-03-15T10:08:57;101029.44;;;8.72;51.93
57192;BME280;43052;52.588;13.396;2023-03-15T10:11:28;101029.94;;;10.25;49.70
57192;BME280;43052;52.588;13.396;2023-03-15T10:14:08;101026.13;;;11.53;46.08
57192;BME280;43052;52.588;13.396;2023-03-15T10:16:40;101022.44;;;11.88;46.01
57192;BME280;43052;52.588;13.396;2023-03-15T10:24:44;101011.34;;;12.64;41.72
57192;BME280;43052;52.588;13.396;2023-03-15T10:27:21;101024.22;;;11.82;41.77
57192;BME280;43052;52.588;13.396;2023-03-15T10:29:52;101031.13;;;12.03;42.94
57192;BME280;43052;52.588;13.396;2023-03-15T10:32:21;101021.47;;;15.22;39.80
57192;BME280;43052;52.588;13.396;2023-03-15T10:34:51;101019.13;;;18.66;34.06
57192;BME280;43052;52.588;13.396;2023-03-15T10:37:18;101021.56;;;20.95;30.20
57192;BME280;43052;52.588;13.396;2023-03-15T10:39:48;101019.59;;;21.77;28.28
57192;BME280;43052;52.588;13.396;2023-03-15T10:42:27;101028.03;;;19.37;30.65
57192;BME280;43052;52.588;13.396;2023-03-15T10:44:53;101039.88;;;17.41;31.04
57192;BME280;43052;52.588;13.396;2023-03-15T10:47:19;101040.41;;;15.82;32.90
57192;BME280;43052;52.588;13.396;2023-03-15T10:49:46;101044.28;;;14.26;35.63
57192;BME280;43052;52.588;13.396;2023-03-15T10:54:55;101039.66;;;12.27;38.64
57192;BME280;43052;52.588;13.396;2023-03-15T10:57:24;101047.63;;;12.13;39.34
57192;BME280;43052;52.588;13.396;2023-03-15T11:00:00;101048.41;;;12.29;38.89
57192;BME280;43052;52.588;13.396;2023-03-15T11:02:34;101048.34;;;12.35;39.58
57192;BME280;43052;52.588;13.396;2023-03-15T11:05:03;101050.19;;;12.19;38.57
57192;BME280;43052;52.588;13.396;2023-03-15T11:07:36;101050.22;;;12.17;39.65
57192;BME280;43052;52.588;13.396;2023-03-15T11:10:04;101053.91;;;11.82;39.43
57192;BME280;43052;52.588;13.396;2023-03-15T11:12:32;101053.31;;;11.26;39.49
57192;BME280;43052;52.588;13.396;2023-03-15T11:15:01;101056.97;;;10.71;40.95
57192;BME280;43052;52.588;13.396;2023-03-15T11:17:30;101050.84;;;10.70;42.22
57192;BME280;43052;52.588;13.396;2023-03-15T11:20:01;101063.00;;;10.94;41.17
57192;BME280;43052;52.588;13.396;2023-03-15T11:22:38;101066.53;;;10.52;41.03
57192;BME280;43052;52.588;13.396;2023-03-15T11:25:07;101056.94;;;10.30;41.86
57192;BME280;43052;52.588;13.396;2023-03-15T11:27:35;101060.41;;;10.34;42.23
57192;BME280;43052;52.588;13.396;2023-03-15T11:30:01;101055.19;;;10.08;41.71
57192;BME280;43052;52.588;13.396;2023-03-15T11:32:30;101065.56;;;9.74;42.56
57192;BME280;43052;52.588;13.396;2023-03-15T11:35:13;101064.69;;;9.76;42.82
57192;BME280;43052;52.588;13.396;2023-03-15T11:37:51;101056.03;;;9.86;43.56
57192;BME280;43052;52.588;13.396;2023-03-15T11:40:22;101056.00;;;9.79;43.26
57192;BME280;43052;52.588;13.396;2023-03-15T11:45:42;101059.47;;;9.81;44.52
57192;BME280;43052;52.588;13.396;2023-03-15T11:48:25;101066.47;;;9.94;42.82
57192;BME280;43052;52.588;13.396;2023-03-15T11:50:53;101069.00;;;9.71;42.87
57192;BME280;43052;52.588;13.396;2023-03-15T11:53:20;101062.84;;;9.43;43.51
57192;BME280;43052;52.588;13.396;2023-03-15T11:55:48;101068.03;;;9.36;43.89
57192;BME280;43052;52.588;13.396;2023-03-15T11:58:34;101062.78;;;9.29;44.18
57192;BME280;43052;52.588;13.396;2023-03-15T12:01:05;101063.63;;;9.20;44.69
57192;BME280;43052;52.588;13.396;2023-03-15T12:03:34;101062.69;;;9.07;44.62
57192;BME280;43052;52.588;13.396;2023-03-15T12:06:33;101067.66;;;8.70;45.45
57192;BME280;43052;52.588;13.396;2023-03-15T12:08:58;101066.59;;;8.46;45.98
57192;BME280;43052;52.588;13.396;2023-03-15T12:14:02;101058.56;;;8.24;46.43
57192;BME280;43052;52.588;13.396;2023-03-15T12:16:30;101062.94;;;8.24;46.55
57192;BME280;43052;52.588;13.396;2023-03-15T12:19:00;101060.00;;;7.94;45.72
57192;BME280;43052;52.588;13.396;2023-03-15T12:21:37;101067.53;;;7.65;46.36
57192;BME280;43052;52.588;13.396;2023-03-15T12:24:05;101072.72;;;7.63;46.88
57192;BME280;43052;52.588;13.396;2023-03-15T12:29:10;101068.25;;;7.53;47.04
57192;BME280;43052;52.588;13.396;2023-03-15T12:31:48;101068.19;;;7.47;47.04
57192;BME280;43052;52.588;13.396;2023-03-15T12:34:27;101069.94;;;7.48;47.15
57192;BME280;43052;52.588;13.396;2023-03-15T12:37:04;101073.56;;;7.61;46.39
57192;BME280;43052;52.588;13.396;2023-03-15T12:39:40;101067.59;;;7.71;46.54
57192;BME280;43052;52.588;13.396;2023-03-15T12:42:11;101074.78;;;7.95;46.18
57192;BME280;43052;52.588;13.396;2023-03-15T12:44:41;101072.53;;;8.34;45.23
57192;BME280;43052;52.588;13.396;2023-03-15T12:47:09;101072.88;;;8.73;44.74
57192;BME280;43052;52.588;13.396;2023-03-15T12:49:42;101069.56;;;8.96;43.87
57192;BME280;43052;52.588;13.396;2023-03-15T12:54:49;101067.97;;;9.24;43.66
57192;BME280;43052;52.588;13.396;2023-03-15T12:57:20;101071.47;;;9.32;42.64
57192;BME280;43052;52.588;13.396;2023-03-15T12:59:49;101071.50;;;9.29;42.47
57192;BME280;43052;52.588;13.396;2023-03-15T13:04:58;101076.78;;;9.51;41.79
57192;BME280;43052;52.588;13.396;2023-03-15T13:10:38;101073.38;;;9.66;40.54
57192;BME280;43052;52.588;13.396;2023-03-15T13:13:13;101072.41;;;9.44;40.55
57192;BME280;43052;52.588;13.396;2023-03-15T13:15:43;101075.78;;;9.18;41.67
57192;BME280;43052;52.588;13.396;2023-03-15T13:18:21;101065.06;;;8.71;41.19
57192;BME280;43052;52.588;13.396;2023-03-15T13:23:32;101071.31;;;7.93;41.03
57192;BME280;43052;52.588;13.396;2023-03-15T13:29:10;101078.13;;;7.82;40.92
57192;BME280;43052;52.588;13.396;2023-03-15T13:31:36;101082.66;;;8.00;40.95
57192;BME280;43052;52.588;13.396;2023-03-15T13:34:15;101087.09;;;8.10;41.14
57192;BME280;43052;52.588;13.396;2023-03-15T13:36:47;101095.94;;;8.28;41.64
57192;BME280;43052;52.588;13.396;2023-03-15T13:39:19;101108.16;;;8.35;41.72
57192;BME280;43052;52.588;13.396;2023-03-15T13:41:44;101124.69;;;8.37;43.39
57192;BME280;43052;52.588;13.396;2023-03-15T13:44:17;101134.94;;;8.19;45.87
57192;BME280;43052;52.588;13.396;2023-03-15T13:46:42;101150.47;;;8.08;49.05
57192;BME280;43052;52.588;13.396;2023-03-15T13:49:10;101160.78;;;7.98;50.44
57192;BME280;43052;52.588;13.396;2023-03-15T13:51:36;101157.81;;;7.69;52.14
57192;BME280;43052;52.588;13.396;2023-03-15T13:54:15;101166.19;;;7.46;53.64
57192;BME280;43052;52.588;13.396;2023-03-15T13:56:54;101162.06;;;7.62;53.80
57192;BME280;43052;52.588;13.396;2023-03-15T13:59:22;101157.84;;;7.72;53.43
57192;BME280;43052;52.588;13.396;2023-03-15T14:01:49;101160.25;;;7.58;53.74
57192;BME280;43052;52.588;13.396;2023-03-15T14:04:18;101148.66;;;7.33;53.92
57192;BME280;43052;52.588;13.396;2023-03-15T14:06:45;101148.53;;;7.24;53.85
57192;BME280;43052;52.588;13.396;2023-03-15T14:09:22;101148.47;;;7.19;53.80
57192;BME280;43052;52.588;13.396;2023-03-15T14:12:01;101146.44;;;6.99;53.43
57192;BME280;43052;52.588;13.396;2023-03-15T14:14:29;101150.66;;;6.91;53.56
57192;BME280;43052;52.588;13.396;2023-03-15T14:16:56;101147.09;;;6.86;53.60
57192;BME280;43052;52.588;13.396;2023-03-15T14:19:28;101133.16;;;6.81;53.10
57192;BME280;43052;52.588;13.396;2023-03-15T14:21:59;101145.22;;;6.76;52.18
57192;BME280;43052;52.588;13.396;2023-03-15T14:24:40;101135.47;;;6.64;51.45
57192;BME280;43052;52.588;13.396;2023-03-15T14:27:08;101141.47;;;6.59;50.79
57192;BME280;43052;52.588;13.396;2023-03-15T14:29:45;101138.69;;;6.47;50.21
57192;BME280;43052;52.588;13.396;2023-03-15T14:32:33;101130.66;;;6.35;49.60
57192;BME280;43052;52.588;13.396;2023-03-15T14:35:05;101134.09;;;6.34;49.61
57192;BME280;43052;52.588;13.396;2023-03-15T14:37:36;101135.78;;;6.32;49.99
57192;BME280;43052;52.588;13.396;2023-03-15T14:40:05;101143.56;;;6.32;49.74
57192;BME280;43052;52.588;13.396;2023-03-15T14:42:34;101133.09;;;6.27;49.36
57192;BME280;43052;52.588;13.396;2023-03-15T14:44:59;101132.25;;;6.26;49.12
57192;BME280;43052;52.588;13.396;2023-03-15T14:47:24;101129.50;;;6.19;48.28
57192;BME280;43052;52.588;13.396;2023-03-15T14:49:50;101139.03;;;6.20;47.56
57192;BME280;43052;52.588;13.396;2023-03-15T14:52:15;101135.69;;;6.27;47.86
57192;BME280;43052;52.588;13.396;2023-03-15T14:54:49;101139.22;;;6.31;47.77
57192;BME280;43052;52.588;13.396;2023-03-15T14:57:15;101128.91;;;6.35;47.36
57192;BME280;43052;52.588;13.396;2023-03-15T14:59:40;101128.91;;;6.35;46.06
57192;BME280;43052;52.588;13.396;2023-03-15T15:02:11;101122.84;;;6.33;45.68
57192;BME280;43052;52.588;13.396;2023-03-15T15:04:39;101138.38;;;6.32;45.57
57192;BME280;43052;52.588;13.396;2023-03-15T15:07:10;101140.97;;;6.30;45.58
57192;BME280;43052;52.588;13.396;2023-03-15T15:09:44;101139.34;;;6.37;45.74
57192;BME280;43052;52.588;13.396;2023-03-15T15:12:11;101140.38;;;6.45;45.83
57192;BME280;43052;52.588;13.396;2023-03-15T15:14:36;101138.88;;;6.59;46.36
57192;BME280;43052;52.588;13.396;2023-03-15T15:17:02;101143.50;;;6.78;45.90
57192;BME280;43052;52.588;13.396;2023-03-15T15:19:28;101146.06;;;6.76;45.98
57192;BME280;43052;52.588;13.396;2023-03-15T15:21:55;101146.75;;;6.66;45.97
57192;BME280;43052;52.588;13.396;2023-03-15T15:24:24;101159.50;;;6.50;45.48
57192;BME280;43052;52.588;13.396;2023-03-15T15:26:51;101161.94;;;6.41;46.34
57192;BME280;43052;52.588;13.396;2023-03-15T15:29:16;101156.94;;;6.52;45.96
57192;BME280;43052;52.588;13.396;2023-03-15T15:31:43;101156.44;;;6.74;45.68
57192;BME280;43052;52.588;13.396;2023-03-15T15:34:09;101147.97;;;6.88;45.40
57192;BME280;43052;52.588;13.396;2023-03-15T15:36:38;101161.88;;;6.88;45.28
57192;BME280;43052;52.588;13.396;2023-03-15T15:39:21;101162.41;;;6.69;44.53
57192;BME280;43052;52.588;13.396;2023-03-15T15:41:47;101169.94;;;6.53;44.60
57192;BME280;43052;52.588;13.396;2023-03-15T15:44:15;101178.59;;;6.52;45.08
57192;BME280;43052;52.588;13.396;2023-03-15T15:46:41;101174.25;;;6.51;44.67
57192;BME280;43052;52.588;13.396;2023-03-15T15:49:06;101182.88;;;6.49;44.97
57192;BME280;43052;52.588;13.396;2023-03-15T15:51:39;101187.22;;;6.51;45.04
57192;BME280;43052;52.588;13.396;2023-03-15T15:54:06;101185.53;;;6.53;45.12
57192;BME280;43052;52.588;13.396;2023-03-15T15:56:37;101196.84;;;6.55;45.18
57192;BME280;43052;52.588;13.396;2023-03-15T15:59:04;101189.91;;;6.56;45.16
57192;BME280;43052;52.588;13.396;2023-03-15T16:01:32;101192.59;;;6.61;45.69
57192;BME280;43052;52.588;13.396;2023-03-15T16:03:59;101207.34;;;6.62;45.57
57192;BME280;43052;52.588;13.396;2023-03-15T16:06:26;101209.78;;;6.54;46.12
57192;BME280;43052;52.588;13.396;2023-03-15T16:08:52;101225.94;;;6.36;47.40
57192;BME280;43052;52.588;13.396;2023-03-15T16:11:19;101232.22;;;6.03;48.81
57192;BME280;43052;52.588;13.396;2023-03-15T16:13:45;101246.56;;;5.88;50.14
57192;BME280;43052;52.588;13.396;2023-03-15T16:16:15;101262.66;;;5.72;51.33
57192;BME280;43052;52.588;13.396;2023-03-15T16:18:42;101268.44;;;5.60;53.27
57192;BME280;43052;52.588;13.396;2023-03-15T16:21:28;101281.06;;;5.44;54.54
57192;BME280;43052;52.588;13.396;2023-03-15T16:24:13;101279.81;;;5.28;55.72
57192;BME280;43052;52.588;13.396;2023-03-15T16:26:40;101281.34;;;5.20;56.31
57192;BME280;43052;52.588;13.396;2023-03-15T16:29:15;101293.13;;;5.09;57.26
57192;BME280;43052;52.588;13.396;2023-03-15T16:31:41;101258.44;;;5.02;58.77
57192;BME280;43052;52.588;13.396;2023-03-15T16:34:11;101246.09;;;4.93;58.52
57192;BME280;43052;52.588;13.396;2023-03-15T16:36:39;101257.06;;;4.83;58.86
57192;BME280;43052;52.588;13.396;2023-03-15T16:39:09;101258.13;;;4.58;58.94
57192;BME280;43052;52.588;13.396;2023-03-15T16:41:35;101270.31;;;4.30;59.47
57192;BME280;43052;52.588;13.396;2023-03-15T16:44:00;101265.19;;;4.02;59.98
57192;BME280;43052;52.588;13.396;2023-03-15T16:46:26;101277.69;;;3.87;60.08
57192;BME280;43052;52.588;13.396;2023-03-15T16:48:51;101280.63;;;3.69;60.13
57192;BME280;43052;52.588;13.396;2023-03-15T16:51:16;101274.94;;;3.53;60.26
57192;BME280;43052;52.588;13.396;2023-03-15T16:53:42;101289.19;;;3.40;60.63
57192;BME280;43052;52.588;13.396;2023-03-15T16:56:13;101304.34;;;3.29;60.98
57192;BME280;43052;52.588;13.396;2023-03-15T16:58:40;101299.78;;;3.21;61.61
57192;BME280;43052;52.588;13.396;2023-03-15T17:01:08;101310.81;;;3.17;62.29
57192;BME280;43052;52.588;13.396;2023-03-15T17:03:34;101310.50;;;3.07;62.35
57192;BME280;43052;52.588;13.396;2023-03-15T17:05:59;101323.94;;;2.97;62.65
57192;BME280;43052;52.588;13.396;2023-03-15T17:08:24;101327.13;;;2.90;63.01
57192;BME280;43052;52.588;13.396;2023-03-15T17:10:50;101333.63;;;2.78;63.76
57192;BME280;43052;52.588;13.396;2023-03-15T17:13:22;101344.47;;;2.68;64.42
57192;BME280;43052;52.588;13.396;2023-03-15T17:15:48;101352.78;;;2.61;64.47
57192;BME280;43052;52.588;13.396;2023-03-15T17:18:18;101348.19;;;2.52;65.17
57192;BME280;43052;52.588;13.396;2023-03-15T17:20:46;101345.56;;;2.50;65.33
57192;BME280;43052;52.588;13.396;2023-03-15T17:23:11;101352.47;;;2.51;65.52
57192;BME280;43052;52.588;13.396;2023-03-15T17:25:37;101352.28;;;2.47;65.51
57192;BME280;43052;52.588;13.396;2023-03-15T17:28:04;101358.94;;;2.40;65.75
57192;BME280;43052;52.588;13.396;2023-03-15T17:30:31;101367.22;;;2.31;65.66
57192;BME280;43052;52.588;13.396;2023-03-15T17:32:58;101359.94;;;2.21;66.32
57192;BME280;43052;52.588;13.396;2023-03-15T17:35:27;101365.44;;;2.08;66.40
57192;BME280;43052;52.588;13.396;2023-03-15T17:37:53;101367.63;;;1.97;66.71
57192;BME280;43052;52.588;13.396;2023-03-15T17:40:30;101372.41;;;1.87;67.17
57192;BME280;43052;52.588;13.396;2023-03-15T17:42:57;101378.88;;;1.78;67.67
57192;BME280;43052;52.588;13.396;2023-03-15T17:45:28;101374.34;;;1.72;67.89
57192;BME280;43052;52.588;13.396;2023-03-15T17:47:54;101381.09;;;1.68;68.00
57192;BME280;43052;52.588;13.396;2023-03-15T17:50:21;101377.41;;;1.62;68.23
57192;BME280;43052;52.588;13.396;2023-03-15T17:52:49;101384.00;;;1.55;68.32
57192;BME280;43052;52.588;13.396;2023-03-15T17:55:19;101385.56;;;1.51;69.04
57192;BME280;43052;52.588;13.396;2023-03-15T17:57:45;101384.38;;;1.43;69.05
57192;BME280;43052;52.588;13.396;2023-03-15T18:00:11;101394.53;;;1.40;69.51
57192;BME280;43052;52.588;13.396;2023-03-15T18:02:37;101389.25;;;1.37;69.75
57192;BME280;43052;52.588;13.396;2023-03-15T18:05:13;101393.53;;;1.36;70.56
57192;BME280;43052;52.588;13.396;2023-03-15T18:07:39;101403.78;;;1.35;70.45
57192;BME280;43052;52.588;13.396;2023-03-15T18:10:05;101399.41;;;1.32;71.04
57192;BME280;43052;52.588;13.396;2023-03-15T18:12:31;101400.22;;;1.31;70.69
57192;BME280;43052;52.588;13.396;2023-03-15T18:14:58;101403.59;;;1.30;71.14
57192;BME280;43052;52.588;13.396;2023-03-15T18:17:23;101414.66;;;1.28;71.22
57192;BME280;43052;52.588;13.396;2023-03-15T18:19:49;101415.38;;;1.25;71.19
57192;BME280;43052;52.588;13.396;2023-03-15T18:22:15;101423.88;;;1.22;71.58
57192;BME280;43052;52.588;13.396;2023-03-15T18:24:42;101423.81;;;1.21;72.08
57192;BME280;43052;52.588;13.396;2023-03-15T18:27:07;101422.91;;;1.20;72.39
57192;BME280;43052;52.588;13.396;2023-03-15T18:29:32;101423.88;;;1.22;72.61
57192;BME280;43052;52.588;13.396;2023-03-15T18:31:57;101420.44;;;1.22;72.54
57192;BME280;43052;52.588;13.396;2023-03-15T18:34:23;101424.56;;;1.18;72.72
57192;BME280;43052;52.588;13.396;2023-03-15T18:36:48;101428.63;;;1.13;72.69
57192;BME280;43052;52.588;13.396;2023-03-15T18:39:13;101426.75;;;1.09;72.95
57192;BME280;43052;52.588;13.396;2023-03-15T18:41:38;101421.44;;;1.06;73.49
57192;BME280;43052;52.588;13.396;2023-03-15T18:44:04;101443.81;;;1.07;73.33
57192;BME280;43052;52.588;13.396;2023-03-15T18:46:29;101447.16;;;1.04;73.62
57192;BME280;43052;52.588;13.396;2023-03-15T18:48:55;101449.63;;;1.03;73.51
57192;BME280;43052;52.588;13.396;2023-03-15T18:51:23;101452.16;;;1.01;73.87
57192;BME280;43052;52.588;13.396;2023-03-15T19:00:41;101446.53;;;0.90;73.60
57192;BME280;43052;52.588;13.396;2023-03-15T19:04:10;101449.72;;;0.85;73.33
57192;BME280;43052;52.588;13.396;2023-03-15T19:06:35;101457.38;;;0.83;73.55
57192;BME280;43052;52.588;13.396;2023-03-15T19:09:02;101455.41;;;0.77;73.58